METAR Analyzer

一覧表示

Hello, Guest. (Login)

ZBAA/PEK  -  北京首都

観測日時
2020-10-25 14:30 (UTC) (7分前)
気温
8
露点
6
湿数
2
相対湿度
87.2%
QNH
1019hPa
推定現地気圧
1014.8hPa
推定海面気圧
1019.1hPa
体感温度
3.5
(無風時)
11
HI
7.1
気温前日比
+2
体感温度前日比
+1.9
HI前日比
+2.3
水平視程
6000m
鉛直視程
データなし
雲底高度
データなし
V/I
判定不可
RVR
No RVR data
卓越風
1m/s from 50°
ガスト
No gust
降水
報告なし
その他の天気
NSC
報告なし

ZBAA 251430Z 05001MPS 6000 NSC 08/06 Q1019 NOSIG

ZSPD/PVG  -  上海浦東

観測日時
2020-10-25 14:30 (UTC) (7分前)
気温
15
露点
12
湿数
3
相対湿度
82.2%
QNH
1020hPa
推定現地気圧
1019.5hPa
推定海面気圧
1020.0hPa
体感温度
7.5
(無風時)
16.8
HI
14.7
気温前日比
+1
体感温度前日比
-0.4
HI前日比
+1.4
水平視程
>10000m
鉛直視程
データなし
雲底高度
No dense clouds
V/I
VMC (VFR)
RVR
No RVR data
卓越風
3m/s from 140°
ガスト
No gust
降水
報告なし
その他の天気
報告なし
報告なし

ZSPD 251430Z 14003MPS CAVOK 15/12 Q1020 NOSIG

ZSSS/SHA  -  上海虹橋

観測日時
2020-10-25 14:30 (UTC) (7分前)
気温
17
露点
12
湿数
5
相対湿度
72.4%
QNH
1020hPa
推定現地気圧
1019.6hPa
推定海面気圧
1020.0hPa
体感温度
10
(無風時)
18.2
HI
16.6
気温前日比
+2
体感温度前日比
-1.1
HI前日比
+2.5
水平視程
>10000m
鉛直視程
データなし
雲底高度
No dense clouds
V/I
VMC (VFR)
RVR
No RVR data
卓越風
3m/s from 130° (110° ~ 170°)
ガスト
No gust
降水
報告なし
その他の天気
報告なし
報告なし

ZSSS 251430Z 13003MPS 110V170 CAVOK 17/12 Q1020 NOSIG

ZSAM/XMN  -  アモイ/廈門高崎

観測日時
2020-10-25 14:00 (UTC) (37分前)
気温
21
露点
15
湿数
6
相対湿度
68.6%
QNH
1017hPa
推定現地気圧
1014.8hPa
推定海面気圧
1016.9hPa
体感温度
14
(無風時)
21.2
HI
20.9
気温前日比
±0
体感温度前日比
+2.2
HI前日比
+0.7
水平視程
>10000m
鉛直視程
データなし
雲底高度
No dense clouds
V/I
VMC (VFR)
RVR
No RVR data
卓越風
4m/s from 40°
ガスト
No gust
降水
報告なし
その他の天気
報告なし
報告なし

ZSAM 251400Z 04004MPS CAVOK 21/15 Q1017 NOSIG

ZGSZ/SZX  -  深圳宝安

観測日時
2020-10-25 14:00 (UTC) (37分前)
気温
25
露点
18
湿数
7
相対湿度
65.1%
QNH
1015hPa
推定現地気圧
1014.5hPa
推定海面気圧
1015.0hPa
体感温度
18.8
(無風時)
24.1
HI
25.3
気温前日比
+4
体感温度前日比
+1.5
HI前日比
+4.4
水平視程
>10000m
鉛直視程
データなし
雲底高度
No dense clouds
V/I
VMC (VFR)
RVR
No RVR data
卓越風
4m/s from 110° (80° ~ 140°)
ガスト
No gust
降水
報告なし
その他の天気
報告なし
報告なし

ZGSZ 251400Z 11004MPS 080V140 CAVOK 25/18 Q1015 NOSIG

VHHH/HKG  -  香港

観測日時
2020-10-25 14:30 (UTC) (7分前)
気温
25
露点
19
湿数
6
相対湿度
69.4%
QNH
1015hPa
推定現地気圧
1013.9hPa
推定海面気圧
1014.9hPa
体感温度
18.5
(無風時)
24.4
HI
25.4
気温前日比
+1
体感温度前日比
+0.7
HI前日比
+1.5
水平視程
>10000m
鉛直視程
データなし
雲底高度
No dense clouds
V/I
VMC (VFR)
RVR
No RVR data
卓越風
10kt from 110°
ガスト
No gust
降水
報告なし
その他の天気
報告なし
少しの雲 @ 4000ft AGL

VHHH 251430Z 11010KT 9999 FEW040 25/19 Q1015 NOSIG

RCTP/TPE  -  台湾桃園

観測日時
2020-10-25 14:00 (UTC) (37分前)
気温
23
露点
18
湿数
5
相対湿度
73.5%
QNH
1015.2hPa
推定現地気圧
1011.2hPa
推定海面気圧
1015.0hPa
体感温度
14.9
(無風時)
23
HI
23.3
気温前日比
+1
体感温度前日比
+1.8
HI前日比
+1.6
水平視程
>10000m
鉛直視程
データなし
雲底高度
No dense clouds
V/I
VMC (VFR)
RVR
No RVR data
卓越風
17kt from 50°
ガスト
No gust
降水
報告なし
その他の天気
報告なし
少しの雲 @ 2000ft AGL

RCTP 251400Z 05017KT 9999 FEW020 23/18 Q1015 NOSIG RMK A2998

RCSS/TSA  -  台北松山

観測日時
2020-10-25 14:00 (UTC) (37分前)
気温
23
露点
20
湿数
3
相対湿度
83.2%
QNH
1016.3hPa
推定現地気圧
1015.7hPa
推定海面気圧
1016.3hPa
体感温度
15.9
(無風時)
23.5
HI
23.5
気温前日比
+2
体感温度前日比
+2.9
HI前日比
+2.4
水平視程
>10000m
鉛直視程
データなし
雲底高度
No dense clouds
V/I
VMC (VFR)
RVR
No RVR data
卓越風
12kt from 90°
ガスト
No gust
降水
報告なし
その他の天気
報告なし
少しの雲 @ 2000ft AGL

RCSS 251400Z 09012KT 9999 FEW020 23/20 Q1016 NOSIG RMK A3001

RCKH/KHH  -  高雄

観測日時
2020-10-25 14:14 (UTC) (23分前)
気温
25
露点
23
湿数
2
相対湿度
88.7%
QNH
1013.5hPa
推定現地気圧
1012.4hPa
推定海面気圧
1013.4hPa
体感温度
20.7
(無風時)
25.5
HI
25.9
気温前日比
データなし
体感温度前日比
データなし
HI前日比
データなし
水平視程
5000m / 一時 3000m
鉛直視程
データなし
雲底高度
2000ft AGL
V/I
VMC (VFR)
RVR
No RVR data
卓越風
5kt from 90°
ガスト
No gust
降水
報告なし
その他の天気
もや
その他の天気 (一時)
もや
散在する雲 @ 1000ft AGL / 隙間のある雲 @ 2000ft AGL / 全天を覆う雲 @ 3000ft AGL

RCKH 251414Z 09005KT 5000 BR SCT010 BKN020 OVC030 25/23 Q1013 TEMPO 3000 BR RMK A2993

6.9msec